createdAt,value
2022-09-16T00:00:52.384Z,13.72
2022-09-16T00:01:52.368Z,13.33
2022-09-16T00:02:52.329Z,13.67
2022-09-16T00:03:52.323Z,13.33
2022-09-16T00:04:52.333Z,13.67
2022-09-16T00:05:52.367Z,13.67
2022-09-16T00:06:52.336Z,13.17
2022-09-16T00:07:52.334Z,13.67
2022-09-16T00:08:52.439Z,13.67
2022-09-16T00:09:52.334Z,13.5
2022-09-16T00:10:52.355Z,13.5
2022-09-16T00:11:52.330Z,13.78
2022-09-16T00:12:52.351Z,13.94
2022-09-16T00:13:52.348Z,13.94
2022-09-16T00:14:52.340Z,13.67
2022-09-16T00:15:52.385Z,13.94
2022-09-16T00:16:52.360Z,13.67
2022-09-16T00:17:52.345Z,13.17
2022-09-16T00:18:52.344Z,13.17
2022-09-16T00:19:52.348Z,13.33
2022-09-16T00:20:52.343Z,13.33
2022-09-16T00:21:52.381Z,13.5
2022-09-16T00:22:52.350Z,13.67
2022-09-16T00:23:52.357Z,13.78
2022-09-16T00:24:52.346Z,13.78
2022-09-16T00:25:52.350Z,13.33
2022-09-16T00:26:52.361Z,13.5
2022-09-16T00:27:52.354Z,13.67
2022-09-16T00:28:52.353Z,13.67
2022-09-16T00:29:52.394Z,13.78
2022-09-16T00:30:52.357Z,13.5
2022-09-16T00:31:52.410Z,13.67
2022-09-16T00:32:52.372Z,13.67
2022-09-16T00:33:52.356Z,13.67
2022-09-16T00:34:52.364Z,13.5
2022-09-16T00:35:52.369Z,13.67
2022-09-16T00:36:52.362Z,13.67
2022-09-16T00:37:52.436Z,13.17
2022-09-16T00:38:52.380Z,13.17
2022-09-16T00:39:52.380Z,13.33
2022-09-16T00:40:52.371Z,13.67
2022-09-16T00:41:52.371Z,13.78
2022-09-16T00:42:52.372Z,13.67
2022-09-16T00:43:52.376Z,13.67
2022-09-16T00:44:52.366Z,13.5
2022-09-16T00:45:52.377Z,13.5
2022-09-16T00:46:52.417Z,13.67
2022-09-16T00:47:52.371Z,13.33
2022-09-16T00:48:52.382Z,13.33
2022-09-16T00:49:52.377Z,13.33
2022-09-16T00:50:52.388Z,13.06
2022-09-16T00:51:52.387Z,13.06
2022-09-16T00:52:52.390Z,12.89
2022-09-16T00:53:52.429Z,13.06
2022-09-16T00:54:52.391Z,13.06
2022-09-16T00:55:52.396Z,13.06
2022-09-16T00:56:52.391Z,13.17
2022-09-16T00:57:52.397Z,12.72
2022-09-16T00:58:52.405Z,12.72
2022-09-16T00:59:52.398Z,12.89
2022-09-16T01:00:52.453Z,12.78
2022-09-16T01:01:52.433Z,12.56
2022-09-16T01:02:52.405Z,12.72
2022-09-16T01:03:52.408Z,12.72
2022-09-16T01:04:52.412Z,12.72
2022-09-16T01:05:52.409Z,12.72
2022-09-16T01:06:52.403Z,13.06
2022-09-16T01:07:52.415Z,13.17
2022-09-16T01:08:52.411Z,12.72
2022-09-16T01:09:52.450Z,12.89
2022-09-16T01:10:52.417Z,13.17
2022-09-16T01:11:52.424Z,13.17
2022-09-16T01:12:52.419Z,13.17
2022-09-16T01:13:52.418Z,13.17
2022-09-16T01:14:52.415Z,13.33
2022-09-16T01:15:52.468Z,13.17
2022-09-16T01:16:52.427Z,13.33
2022-09-16T01:17:52.426Z,12.72
2022-09-16T01:18:52.428Z,12.56
2022-09-16T01:19:52.429Z,12.72
2022-09-16T01:20:52.440Z,12.72
2022-09-16T01:21:52.435Z,12.56
2022-09-16T01:22:52.437Z,12.72
2022-09-16T01:23:52.506Z,12.72
2022-09-16T01:24:52.434Z,12.72
2022-09-16T01:25:52.467Z,12.89
2022-09-16T01:26:52.434Z,12.72
2022-09-16T01:27:52.448Z,13.06
2022-09-16T01:28:52.448Z,12.72
2022-09-16T01:29:52.449Z,12.72
2022-09-16T01:30:52.442Z,12.89
2022-09-16T01:31:52.449Z,12.44
2022-09-16T01:32:52.447Z,12.72
2022-09-16T01:33:52.442Z,12.72
2022-09-16T01:34:52.451Z,12.72
2022-09-16T01:35:52.452Z,12.56
2022-09-16T01:36:52.452Z,12.72
2022-09-16T01:37:52.456Z,12.56
2022-09-16T01:38:52.487Z,12.44
2022-09-16T01:39:52.476Z,12.28
2022-09-16T01:40:52.451Z,12.44
2022-09-16T01:41:52.476Z,12.44
2022-09-16T01:42:52.462Z,12.44
2022-09-16T01:43:52.458Z,12.44
2022-09-16T01:44:52.458Z,12.28
2022-09-16T01:45:52.449Z,12.28
2022-09-16T01:46:52.487Z,12.28
2022-09-16T01:47:52.462Z,12.11
2022-09-16T01:48:53.828Z,12.28
2022-09-16T01:49:52.471Z,12.11
2022-09-16T01:50:52.465Z,12.28
2022-09-16T01:51:52.461Z,12.11
2022-09-16T01:52:52.475Z,12.11
2022-09-16T01:53:52.475Z,12.11
2022-09-16T01:54:52.479Z,12.28
2022-09-16T01:55:52.475Z,11.94
2022-09-16T01:56:52.468Z,11.83
2022-09-16T01:57:52.502Z,11.44
2022-09-16T01:58:52.482Z,11.83
2022-09-16T01:59:52.479Z,11.72
2022-09-16T02:00:52.478Z,11.83
2022-09-16T02:01:52.567Z,11.72
2022-09-16T02:02:52.520Z,11.72
2022-09-16T02:03:52.481Z,11.61
2022-09-16T02:04:52.484Z,11.83
2022-09-16T02:05:52.483Z,11.83
2022-09-16T02:06:52.483Z,11.83
2022-09-16T02:07:52.502Z,11.83
2022-09-16T02:08:52.494Z,11.83
2022-09-16T02:09:52.498Z,11.83
2022-09-16T02:10:52.500Z,11.83
2022-09-16T02:11:52.494Z,11.83
2022-09-16T02:12:52.499Z,11.72
2022-09-16T02:13:52.520Z,11.83
2022-09-16T02:14:52.505Z,11.61
2022-09-16T02:15:52.532Z,11.61
2022-09-16T02:16:52.509Z,11.83
2022-09-16T02:17:52.504Z,11.83
2022-09-16T02:18:52.501Z,11.72
2022-09-16T02:19:52.500Z,11.83
2022-09-16T02:20:52.506Z,11.94
2022-09-16T02:21:52.508Z,12.11
2022-09-16T02:22:52.514Z,11.61
2022-09-16T02:23:52.507Z,12.28
2022-09-16T02:24:52.509Z,12.11
2022-09-16T02:25:52.510Z,12.11
2022-09-16T02:26:52.505Z,12.11
2022-09-16T02:27:52.510Z,12.11
2022-09-16T02:28:52.519Z,12.11
2022-09-16T02:29:52.538Z,11.94
2022-09-16T02:30:52.526Z,12.11
2022-09-16T02:31:55.685Z,11.94
2022-09-16T02:32:52.515Z,11.72
2022-09-16T02:33:52.512Z,11.83
2022-09-16T02:34:52.518Z,11.83
2022-09-16T02:35:52.508Z,11.72
2022-09-16T02:36:52.509Z,11.83
2022-09-16T02:37:52.511Z,11.83
2022-09-16T02:38:52.557Z,11.83
2022-09-16T02:39:52.542Z,11.72
2022-09-16T02:40:52.515Z,11.83
2022-09-16T02:41:52.520Z,11.83
2022-09-16T02:42:52.517Z,11.72
2022-09-16T02:43:52.519Z,11.61
2022-09-16T02:44:52.526Z,11.61
2022-09-16T02:45:52.541Z,11.28
2022-09-16T02:46:52.530Z,11.44
2022-09-16T02:47:52.522Z,11.61
2022-09-16T02:48:52.532Z,11.61
2022-09-16T02:49:52.523Z,11.72
2022-09-16T02:50:52.530Z,11.72
2022-09-16T02:51:52.535Z,11.61
2022-09-16T02:52:52.538Z,11.61
2022-09-16T02:53:52.535Z,11.28
2022-09-16T02:54:52.533Z,11.83
2022-09-16T02:55:52.532Z,11.83
2022-09-16T02:56:52.537Z,11.83
2022-09-16T02:57:52.534Z,11.11
2022-09-16T02:58:52.532Z,11.72
2022-09-16T02:59:52.528Z,11.83
2022-09-16T03:00:52.538Z,11.44
2022-09-16T03:01:52.716Z,11.61
2022-09-16T03:02:52.592Z,11.44
2022-09-16T03:03:52.531Z,11.44
2022-09-16T03:04:52.546Z,11.11
2022-09-16T03:05:52.553Z,11.83
2022-09-16T03:06:52.546Z,11.72
2022-09-16T03:07:52.540Z,11.72
2022-09-16T03:08:52.558Z,11.61
2022-09-16T03:09:52.555Z,11.72
2022-09-16T03:10:52.550Z,11.72
2022-09-16T03:11:52.551Z,11.72
2022-09-16T03:12:52.550Z,11.61
2022-09-16T03:13:52.550Z,11.83
2022-09-16T03:14:52.563Z,11.72
2022-09-16T03:15:52.622Z,11.83
2022-09-16T03:16:52.544Z,11.61
2022-09-16T03:17:52.573Z,11.83
2022-09-16T03:18:52.561Z,11.61
2022-09-16T03:19:52.566Z,11.72
2022-09-16T03:20:52.560Z,11.44
2022-09-16T03:21:52.559Z,11.44
2022-09-16T03:22:52.557Z,11.83
2022-09-16T03:23:52.588Z,11.44
2022-09-16T03:24:52.556Z,11.61
2022-09-16T03:25:52.563Z,11.28
2022-09-16T03:26:52.562Z,11.72
2022-09-16T03:27:52.562Z,11.44
2022-09-16T03:28:52.566Z,11.44
2022-09-16T03:29:52.551Z,11.72
2022-09-16T03:30:52.604Z,11.61
2022-09-16T03:31:52.570Z,11.44
2022-09-16T03:32:52.557Z,11.61
2022-09-16T03:33:52.584Z,11.44
2022-09-16T03:34:52.556Z,11.72
2022-09-16T03:35:52.574Z,11.72
2022-09-16T03:36:52.555Z,11.83
2022-09-16T03:37:52.563Z,11.11
2022-09-16T03:38:52.644Z,11.28
2022-09-16T03:39:52.615Z,11.83
2022-09-16T03:40:52.564Z,11.72
2022-09-16T03:41:52.573Z,11.44
2022-09-16T03:42:52.571Z,11.44
2022-09-16T03:43:52.579Z,11.11
2022-09-16T03:44:52.567Z,11.44
2022-09-16T03:45:52.614Z,11.44
2022-09-16T03:46:52.576Z,11.61
2022-09-16T03:47:52.575Z,11.61
2022-09-16T03:48:52.572Z,11.61
2022-09-16T03:49:52.600Z,11.72
2022-09-16T03:50:52.579Z,11.72
2022-09-16T03:51:52.573Z,11.72
2022-09-16T03:52:52.570Z,11.83
2022-09-16T03:53:52.592Z,11.83
2022-09-16T03:54:52.570Z,11.72
2022-09-16T03:55:52.575Z,11.72
2022-09-16T03:56:52.582Z,11.83
2022-09-16T03:57:52.570Z,11.83
2022-09-16T03:58:52.583Z,11.83
2022-09-16T03:59:52.573Z,11.72
2022-09-16T04:00:52.578Z,11.61
2022-09-16T04:01:52.617Z,11.83
2022-09-16T04:02:52.603Z,11.44
2022-09-16T04:03:52.571Z,11.44
2022-09-16T04:04:52.567Z,11.61
2022-09-16T04:05:52.599Z,11.61
2022-09-16T04:06:52.580Z,11.44
2022-09-16T04:07:52.582Z,11
2022-09-16T04:08:52.652Z,11.44
2022-09-16T04:09:52.586Z,11.44
2022-09-16T04:10:52.585Z,11.44
2022-09-16T04:11:52.583Z,11.44
2022-09-16T04:12:52.591Z,11.44
2022-09-16T04:13:52.590Z,11.44
2022-09-16T04:14:52.581Z,11.44
2022-09-16T04:15:52.618Z,11.28
2022-09-16T04:16:52.580Z,11.44
2022-09-16T04:17:52.587Z,11.11
2022-09-16T04:18:52.590Z,10.83
2022-09-16T04:19:52.603Z,11.28
2022-09-16T04:20:52.598Z,11.44
2022-09-16T04:21:52.616Z,11.44
2022-09-16T04:22:52.605Z,11
2022-09-16T04:23:52.597Z,11.44
2022-09-16T04:24:52.607Z,11.44
2022-09-16T04:25:52.604Z,11.44
2022-09-16T04:26:52.601Z,11.44
2022-09-16T04:27:52.609Z,11.44
2022-09-16T04:28:52.599Z,11.28
2022-09-16T04:29:52.608Z,11.44
2022-09-16T04:30:52.641Z,11.28
2022-09-16T04:31:52.605Z,11.44
2022-09-16T04:32:52.614Z,11.61
2022-09-16T04:33:52.612Z,11.28
2022-09-16T04:34:52.605Z,11.28
2022-09-16T04:35:52.610Z,11.44
2022-09-16T04:36:52.622Z,11.61
2022-09-16T04:37:52.644Z,11.61
2022-09-16T04:38:52.716Z,11.44
2022-09-16T04:39:52.651Z,11.44
2022-09-16T04:40:52.618Z,11.72
2022-09-16T04:41:52.620Z,11.44
2022-09-16T04:42:52.630Z,11.72
2022-09-16T04:43:52.619Z,11.61
2022-09-16T04:44:52.622Z,11.83
2022-09-16T04:45:52.668Z,11.72
2022-09-16T04:46:52.627Z,11.61
2022-09-16T04:47:52.624Z,11.72
2022-09-16T04:48:52.638Z,11.83
2022-09-16T04:49:52.631Z,11.72
2022-09-16T04:50:52.630Z,11.72
2022-09-16T04:51:52.633Z,11.72
2022-09-16T04:52:52.638Z,11.61
2022-09-16T04:53:52.658Z,11.44
2022-09-16T04:54:52.639Z,11.72
2022-09-16T04:55:52.632Z,11.83
2022-09-16T04:56:52.637Z,11.72
2022-09-16T04:57:52.641Z,11.44
2022-09-16T04:58:52.640Z,11.44
2022-09-16T04:59:52.630Z,11.44
2022-09-16T05:00:52.653Z,11.61
2022-09-16T05:01:52.712Z,11
2022-09-16T05:02:52.655Z,11.28
2022-09-16T05:03:52.642Z,11.61
2022-09-16T05:04:52.644Z,11.61
2022-09-16T05:05:52.643Z,11.44
2022-09-16T05:06:52.649Z,11.44
2022-09-16T05:07:52.643Z,11.61
2022-09-16T05:08:52.763Z,11.61
2022-09-16T05:09:52.677Z,11.61
2022-09-16T05:10:52.650Z,11.61
2022-09-16T05:11:52.653Z,11.72
2022-09-16T05:12:52.654Z,11.28
2022-09-16T05:13:52.654Z,11.61
2022-09-16T05:14:52.651Z,11.44
2022-09-16T05:15:52.714Z,11.28
2022-09-16T05:16:52.657Z,11.72
2022-09-16T05:17:52.655Z,11.61
2022-09-16T05:18:52.654Z,11.72
2022-09-16T05:19:52.694Z,11.72
2022-09-16T05:20:52.690Z,11.83
2022-09-16T05:21:52.664Z,11.72
2022-09-16T05:22:52.657Z,11.61
2022-09-16T05:23:52.667Z,11.61
2022-09-16T05:24:52.666Z,11.83
2022-09-16T05:25:52.798Z,11.72
2022-09-16T05:26:52.666Z,11.72
2022-09-16T05:27:52.679Z,11.72
2022-09-16T05:28:52.683Z,11.61
2022-09-16T05:29:52.671Z,11.72
2022-09-16T05:30:52.719Z,11.83
2022-09-16T05:31:52.677Z,11.44
2022-09-16T05:32:52.681Z,11.61
2022-09-16T05:33:52.733Z,11.83
2022-09-16T05:34:52.683Z,11.61
2022-09-16T05:35:52.689Z,11.61
2022-09-16T05:36:52.692Z,11.61
2022-09-16T05:37:52.685Z,11.44
2022-09-16T05:39:11.418Z,11.28
2022-09-16T05:39:52.719Z,11
2022-09-16T05:40:52.694Z,11.44
2022-09-16T05:41:52.817Z,11.28
2022-09-16T05:42:52.702Z,11.44
2022-09-16T05:43:52.695Z,11.11
2022-09-16T05:44:52.697Z,11
2022-09-16T05:45:52.788Z,11.44
2022-09-16T05:46:52.695Z,11.61
2022-09-16T05:47:52.697Z,11.28
2022-09-16T05:48:52.702Z,11.44
2022-09-16T05:49:52.693Z,11.28
2022-09-16T05:50:52.706Z,11.11
2022-09-16T05:51:52.701Z,11.44
2022-09-16T05:52:52.704Z,11.44
2022-09-16T05:53:52.710Z,11.61
2022-09-16T05:54:52.709Z,11.61
2022-09-16T05:55:52.708Z,11.61
2022-09-16T05:56:52.705Z,11.44
2022-09-16T05:57:52.837Z,11
2022-09-16T05:58:52.708Z,11.61
2022-09-16T05:59:52.711Z,11.61
2022-09-16T06:00:52.714Z,11.83
2022-09-16T06:01:52.770Z,11.72
2022-09-16T06:02:52.787Z,11.72
2022-09-16T06:03:52.716Z,11.61
2022-09-16T06:04:52.714Z,11.44
2022-09-16T06:05:52.726Z,11.44
2022-09-16T06:06:52.727Z,11.44
2022-09-16T06:07:52.728Z,11.44
2022-09-16T06:08:52.721Z,11.61
2022-09-16T06:09:52.720Z,11.72
2022-09-16T06:10:52.726Z,11.72
2022-09-16T06:11:55.587Z,11.61
2022-09-16T06:12:52.732Z,11.61
2022-09-16T06:13:52.860Z,11.28
2022-09-16T06:14:52.726Z,11.44
2022-09-16T06:15:52.751Z,11.44
2022-09-16T06:16:52.732Z,11.44
2022-09-16T06:17:52.739Z,11.28
2022-09-16T06:18:52.730Z,11.61
2022-09-16T06:19:52.730Z,11
2022-09-16T06:20:52.739Z,11.61
2022-09-16T06:21:52.742Z,11.61
2022-09-16T06:22:52.748Z,11.44
2022-09-16T06:23:52.735Z,11.61
2022-09-16T06:24:52.748Z,11.11
2022-09-16T06:25:52.744Z,11.72
2022-09-16T06:26:52.745Z,11.44
2022-09-16T06:27:52.748Z,11.61
2022-09-16T06:28:52.746Z,11.44
2022-09-16T06:29:52.876Z,11.72
2022-09-16T06:30:52.747Z,11.44
2022-09-16T06:31:52.760Z,11.44
2022-09-16T06:32:52.755Z,11.28
2022-09-16T06:33:52.758Z,11.44
2022-09-16T06:34:52.750Z,11.44
2022-09-16T06:35:52.746Z,11.83
2022-09-16T06:36:52.761Z,11.72
2022-09-16T06:37:52.760Z,11.72
2022-09-16T06:38:52.759Z,11.61
2022-09-16T06:39:52.780Z,11.94
2022-09-16T06:40:52.758Z,11.72
2022-09-16T06:41:52.766Z,11.83
2022-09-16T06:42:54.434Z,11.83
2022-09-16T06:43:52.765Z,11.83
2022-09-16T06:44:52.759Z,11.44
2022-09-16T06:45:52.923Z,12.11
2022-09-16T06:46:52.771Z,11.94
2022-09-16T06:47:52.766Z,11.83
2022-09-16T06:48:52.774Z,11.83
2022-09-16T06:49:52.768Z,12.11
2022-09-16T06:50:52.763Z,11.94
2022-09-16T06:51:52.758Z,11.94
2022-09-16T06:52:52.767Z,11.61
2022-09-16T06:53:52.772Z,11.94
2022-09-16T06:54:52.769Z,12.11
2022-09-16T06:55:52.770Z,12.11
2022-09-16T06:56:52.777Z,12.11
2022-09-16T06:57:52.770Z,11.94
2022-09-16T06:58:52.771Z,11.94
2022-09-16T06:59:52.771Z,11.83
2022-09-16T07:00:52.816Z,12.11
2022-09-16T07:01:52.954Z,12.28
2022-09-16T07:02:52.790Z,12.28
2022-09-16T07:03:52.843Z,12.28
2022-09-16T07:04:52.796Z,12.28
2022-09-16T07:05:52.785Z,12.44
2022-09-16T07:07:09.923Z,12.44
2022-09-16T07:07:52.788Z,12.11
2022-09-16T07:08:52.790Z,12.44
2022-09-16T07:09:52.793Z,12.56
2022-09-16T07:10:52.792Z,12.28
2022-09-16T07:11:52.798Z,12.44
2022-09-16T07:12:52.799Z,12.28
2022-09-16T07:13:52.795Z,12.44
2022-09-16T07:14:52.797Z,12.44
2022-09-16T07:16:52.895Z,12.28
2022-09-16T07:17:52.916Z,12.44
2022-09-16T07:18:54.599Z,12.28
2022-09-16T07:19:52.806Z,12.11
2022-09-16T07:20:52.803Z,11.94
2022-09-16T07:21:52.799Z,12.11
2022-09-16T07:22:52.798Z,12.28
2022-09-16T07:23:52.808Z,12.44
2022-09-16T07:24:52.811Z,12.44
2022-09-16T07:25:52.813Z,12.28
2022-09-16T07:26:52.805Z,12.56
2022-09-16T07:27:52.804Z,12.44
2022-09-16T07:28:52.834Z,12.11
2022-09-16T07:29:52.814Z,12.28
2022-09-16T07:30:52.895Z,12.28
2022-09-16T07:31:52.824Z,12.28
2022-09-16T07:32:52.812Z,11.94
2022-09-16T07:33:53.001Z,12.28
2022-09-16T07:34:52.817Z,12.11
2022-09-16T07:35:52.817Z,12.28
2022-09-16T07:36:52.827Z,12.56
2022-09-16T07:37:52.834Z,12.28
2022-09-16T07:38:52.822Z,12.44
2022-09-16T07:39:52.854Z,12.44
2022-09-16T07:40:52.816Z,12.44
2022-09-16T07:41:52.839Z,12.28
2022-09-16T07:42:52.821Z,12.11
2022-09-16T07:43:52.848Z,12.28
2022-09-16T07:44:52.833Z,12.56
2022-09-16T07:45:52.858Z,12.28
2022-09-16T07:46:52.823Z,12.28
2022-09-16T07:47:52.830Z,12.28
2022-09-16T07:48:52.836Z,12.28
2022-09-16T07:49:52.948Z,12.11
2022-09-16T07:50:52.844Z,12.28
2022-09-16T07:51:52.837Z,12.28
2022-09-16T07:52:52.834Z,12.28
2022-09-16T07:53:52.949Z,12.28
2022-09-16T07:54:52.830Z,12.28
2022-09-16T07:55:52.836Z,12.28
2022-09-16T07:56:52.834Z,12.44
2022-09-16T07:57:52.833Z,12.28
2022-09-16T07:58:52.839Z,12.28
2022-09-16T07:59:52.832Z,12.28
2022-09-16T08:00:52.880Z,12.44
2022-09-16T08:01:52.946Z,12.28
2022-09-16T08:02:52.890Z,12.44
2022-09-16T08:03:52.843Z,12.28
2022-09-16T08:04:52.842Z,12.11
2022-09-16T08:05:52.969Z,11.94
2022-09-16T08:06:52.847Z,12.28
2022-09-16T08:07:52.845Z,12.28
2022-09-16T08:08:52.968Z,12.11
2022-09-16T08:09:53.619Z,12.28
2022-09-16T08:10:52.869Z,11.94
2022-09-16T08:11:52.860Z,12.11
2022-09-16T08:12:52.847Z,12.28
2022-09-16T08:13:52.842Z,12.44
2022-09-16T08:14:52.853Z,12.11
2022-09-16T08:15:52.848Z,12.28
2022-09-16T08:16:52.897Z,12.28
2022-09-16T08:17:52.845Z,12.28
2022-09-16T08:18:52.934Z,12.28
2022-09-16T08:19:52.847Z,12.28
2022-09-16T08:20:52.846Z,12.44
2022-09-16T08:21:52.964Z,12.44
2022-09-16T08:22:56.054Z,12.44
2022-09-16T08:23:52.846Z,12.56
2022-09-16T08:24:52.857Z,12.44
2022-09-16T08:25:52.858Z,12.72
2022-09-16T08:26:52.889Z,12.44
2022-09-16T08:27:54.188Z,12.89
2022-09-16T08:29:08.683Z,12.72
2022-09-16T08:29:52.849Z,13.17
2022-09-16T08:30:53.307Z,12.89
2022-09-16T08:31:52.914Z,13.17
2022-09-16T08:32:52.853Z,12.56
2022-09-16T08:33:52.893Z,13.17
2022-09-16T08:34:52.847Z,13.33
2022-09-16T08:35:52.851Z,13.17
2022-09-16T08:36:52.845Z,13.33
2022-09-16T08:37:52.980Z,13.17
2022-09-16T08:38:52.849Z,13.33
2022-09-16T08:39:52.892Z,13.33
2022-09-16T08:40:52.858Z,13.06
2022-09-16T08:41:52.858Z,13.33
2022-09-16T08:42:52.848Z,13.17
2022-09-16T08:43:52.888Z,13.17
2022-09-16T08:44:52.858Z,13.17
2022-09-16T08:45:52.926Z,13.33
2022-09-16T08:46:52.861Z,13.5
2022-09-16T08:47:52.864Z,13.5
2022-09-16T08:48:52.856Z,13.17
2022-09-16T08:49:52.854Z,13.33
2022-09-16T08:50:52.854Z,13.67
2022-09-16T08:51:52.859Z,13.78
2022-09-16T08:52:52.868Z,13.67
2022-09-16T08:53:53.016Z,13.78
2022-09-16T08:54:52.869Z,13.67
2022-09-16T08:55:52.863Z,13.94
2022-09-16T08:56:52.869Z,13.78
2022-09-16T08:57:52.871Z,13.94
2022-09-16T08:58:52.878Z,13.94
2022-09-16T08:59:52.876Z,13.94
2022-09-16T09:00:52.933Z,14.28
2022-09-16T09:01:53.292Z,14.28
2022-09-16T09:02:52.940Z,14.39
2022-09-16T09:03:52.882Z,14.89
2022-09-16T09:04:52.875Z,14.89
2022-09-16T09:05:52.887Z,15
2022-09-16T09:06:52.881Z,15.39
2022-09-16T09:07:52.901Z,15
2022-09-16T09:08:52.890Z,15.39
2022-09-16T09:09:53.024Z,15.39
2022-09-16T09:10:52.930Z,15.39
2022-09-16T09:11:53.161Z,15.17
2022-09-16T09:12:53.987Z,14.89
2022-09-16T09:13:52.891Z,14.06
2022-09-16T09:14:52.887Z,14.39
2022-09-16T09:15:52.897Z,15.17
2022-09-16T09:16:52.948Z,15.22
2022-09-16T09:17:52.898Z,15.39
2022-09-16T09:18:52.945Z,15.39
2022-09-16T09:19:52.911Z,15.39
2022-09-16T09:20:52.903Z,14.67
2022-09-16T09:21:52.900Z,14.56
2022-09-16T09:22:52.896Z,14.06
2022-09-16T09:23:52.946Z,14.06
2022-09-16T09:24:56.561Z,14.39
2022-09-16T09:25:53.039Z,14.56
2022-09-16T09:26:52.908Z,14.67
2022-09-16T09:27:52.907Z,14.67
2022-09-16T09:28:52.914Z,15.17
2022-09-16T09:29:52.912Z,14.89
2022-09-16T09:30:52.909Z,15.17
2022-09-16T09:31:52.950Z,15.39
2022-09-16T09:32:52.915Z,15.39
2022-09-16T09:34:52.925Z,15
2022-09-16T09:35:52.918Z,15
2022-09-16T09:36:52.930Z,15.17
2022-09-16T09:37:52.922Z,15
2022-09-16T09:38:52.965Z,15.39
2022-09-16T09:39:52.959Z,15.17
2022-09-16T09:40:52.936Z,15.56
2022-09-16T09:41:53.066Z,15.89
2022-09-16T09:42:52.933Z,15.89
2022-09-16T09:43:52.938Z,16.06
2022-09-16T09:44:53.866Z,15.89
2022-09-16T09:45:52.974Z,15.72
2022-09-16T09:46:52.936Z,16.22
2022-09-16T09:47:52.932Z,15.89
2022-09-16T09:48:52.941Z,15.72
2022-09-16T09:49:52.936Z,15.39
2022-09-16T09:50:52.950Z,15.17
2022-09-16T09:51:52.948Z,15.72
2022-09-16T09:52:52.951Z,15.89
2022-09-16T09:53:53.075Z,15.39
2022-09-16T09:54:52.946Z,15.28
2022-09-16T09:55:52.952Z,15.56
2022-09-16T09:56:52.954Z,16.06
2022-09-16T09:57:53.089Z,16.39
2022-09-16T09:58:52.952Z,15.89
2022-09-16T09:59:52.958Z,15.89
2022-09-16T10:00:53.082Z,16.39
2022-09-16T10:01:52.987Z,16.39
2022-09-16T10:02:52.967Z,16.22
2022-09-16T10:03:52.961Z,16.06
2022-09-16T10:04:52.958Z,16.39
2022-09-16T10:05:52.976Z,15.78
2022-09-16T10:06:53.032Z,15.17
2022-09-16T10:07:52.974Z,14.89
2022-09-16T10:08:53.017Z,15.17
2022-09-16T10:09:52.960Z,15.61
2022-09-16T10:10:52.985Z,15.89
2022-09-16T10:11:52.972Z,15.89
2022-09-16T10:12:52.970Z,16.06
2022-09-16T10:13:53.103Z,16.06
2022-09-16T10:14:52.971Z,15.28
2022-09-16T10:15:53.446Z,15.17
2022-09-16T10:16:52.971Z,15.61
2022-09-16T10:17:52.978Z,15.61
2022-09-16T10:18:52.981Z,15.61
2022-09-16T10:19:52.984Z,15.89
2022-09-16T10:20:52.982Z,16.22
2022-09-16T10:21:52.985Z,16.22
2022-09-16T10:22:52.985Z,16.39
2022-09-16T10:23:53.109Z,16.56
2022-09-16T10:24:52.980Z,16.22
2022-09-16T10:25:52.987Z,15.89
2022-09-16T10:26:52.980Z,16.56
2022-09-16T10:27:52.991Z,16.72
2022-09-16T10:28:52.982Z,16.72
2022-09-16T10:29:53.114Z,16.89
2022-09-16T10:30:52.987Z,16.56
2022-09-16T10:31:53.071Z,16.56
2022-09-16T10:32:52.988Z,16.39
2022-09-16T10:33:53.048Z,16.56
2022-09-16T10:34:52.989Z,17
2022-09-16T10:35:52.991Z,16.56
2022-09-16T10:36:52.998Z,15.61
2022-09-16T10:37:52.992Z,15.44
2022-09-16T10:38:52.996Z,15.28
2022-09-16T10:39:53.053Z,15.44
2022-09-16T10:40:53.007Z,15.44
2022-09-16T10:41:53.009Z,16.06
2022-09-16T10:42:53.006Z,16.22
2022-09-16T10:43:53.006Z,16.72
2022-09-16T10:44:53.002Z,17.33
2022-09-16T10:45:53.184Z,17.67
2022-09-16T10:46:53.021Z,18.28
2022-09-16T10:47:53.013Z,18.28
2022-09-16T10:48:53.047Z,17.94
2022-09-16T10:49:53.014Z,18.44
2022-09-16T10:50:53.011Z,18.78
2022-09-16T10:51:53.013Z,18.28
2022-09-16T10:52:53.034Z,19.44
2022-09-16T10:53:53.014Z,18.61
2022-09-16T10:54:53.014Z,17.83
2022-09-16T10:55:53.010Z,17.67
2022-09-16T10:56:53.013Z,17.67
2022-09-16T10:57:53.007Z,18.44
2022-09-16T10:58:53.022Z,18.44
2022-09-16T10:59:53.016Z,17.94
2022-09-16T11:00:53.096Z,17
2022-09-16T11:01:53.512Z,17.5
2022-09-16T11:02:53.025Z,17.94
2022-09-16T11:03:53.041Z,17.94
2022-09-16T11:04:53.015Z,18.28
2022-09-16T11:05:53.026Z,18.44
2022-09-16T11:06:53.023Z,17.94
2022-09-16T11:07:53.023Z,17.83
2022-09-16T11:08:53.025Z,18.28
2022-09-16T11:09:53.026Z,18.44
2022-09-16T11:10:53.025Z,18.94
2022-09-16T11:11:53.031Z,19.44
2022-09-16T11:12:53.021Z,18.94
2022-09-16T11:13:53.061Z,18.94
2022-09-16T11:14:53.032Z,17.94
2022-09-16T11:15:53.060Z,18.28
2022-09-16T11:16:53.041Z,18.28
2022-09-16T11:17:53.183Z,18.28
2022-09-16T11:18:53.146Z,18.17
2022-09-16T11:19:53.039Z,18.17
2022-09-16T11:20:53.047Z,17.94
2022-09-16T11:21:53.043Z,17
2022-09-16T11:22:53.049Z,17.5
2022-09-16T11:23:53.048Z,17.5
2022-09-16T11:24:53.047Z,17.5
2022-09-16T11:25:53.060Z,17.5
2022-09-16T11:26:53.044Z,17.17
2022-09-16T11:27:53.050Z,17
2022-09-16T11:28:53.116Z,17.17
2022-09-16T11:29:53.051Z,17
2022-09-16T11:30:53.063Z,17.5
2022-09-16T11:31:53.107Z,17.33
2022-09-16T11:32:53.254Z,17.94
2022-09-16T11:33:53.204Z,17.83
2022-09-16T11:34:53.053Z,18.28
2022-09-16T11:35:53.057Z,18.78
2022-09-16T11:36:53.055Z,18.94
2022-09-16T11:37:53.057Z,19.44
2022-09-16T11:38:53.051Z,18.61
2022-09-16T11:39:53.105Z,18.44
2022-09-16T11:40:53.068Z,18.28
2022-09-16T11:41:53.055Z,18.17
2022-09-16T11:42:53.063Z,17.5
2022-09-16T11:43:53.061Z,17.83
2022-09-16T11:44:53.071Z,18.44
2022-09-16T11:45:53.067Z,18.17
2022-09-16T11:46:53.116Z,17.94
2022-09-16T11:47:53.065Z,18.28
2022-09-16T11:48:53.094Z,18.17
2022-09-16T11:49:53.200Z,18
2022-09-16T11:50:53.066Z,18.44
2022-09-16T11:51:53.076Z,18.33
2022-09-16T11:52:53.614Z,18.33
2022-09-16T11:53:53.252Z,18.67
2022-09-16T11:54:53.074Z,18.17
2022-09-16T11:55:53.081Z,17.67
2022-09-16T11:56:53.086Z,17.83
2022-09-16T11:57:53.087Z,17.67
2022-09-16T11:58:53.099Z,17.83
2022-09-16T11:59:53.095Z,18
2022-09-16T12:00:53.082Z,18.17
2022-09-16T12:01:53.130Z,17.39
2022-09-16T12:02:53.119Z,17.22
2022-09-16T12:03:53.123Z,17.22
2022-09-16T12:04:53.092Z,17.67
2022-09-16T12:05:53.217Z,17.22
2022-09-16T12:06:53.089Z,17.39
2022-09-16T12:07:53.090Z,17.67
2022-09-16T12:08:53.138Z,17.5
2022-09-16T12:09:53.094Z,17.39
2022-09-16T12:10:53.093Z,17.83
2022-09-16T12:11:53.103Z,17.67
2022-09-16T12:12:53.109Z,17.67
2022-09-16T12:14:03.366Z,17.67
2022-09-16T12:14:53.086Z,17.5
2022-09-16T12:15:53.108Z,18.17
2022-09-16T12:16:53.102Z,18
2022-09-16T12:17:53.102Z,18
2022-09-16T12:18:53.149Z,18
2022-09-16T12:19:53.107Z,17.5
2022-09-16T12:20:53.100Z,17.22
2022-09-16T12:21:57.453Z,17.22
2022-09-16T12:22:53.099Z,17.5
2022-09-16T12:23:53.113Z,17.22
2022-09-16T12:24:53.104Z,17.06
2022-09-16T12:25:53.110Z,17.5
2022-09-16T12:26:53.102Z,17.22
2022-09-16T12:27:53.114Z,17.22
2022-09-16T12:28:53.107Z,17.5
2022-09-16T12:29:53.116Z,17.67
2022-09-16T12:30:53.137Z,17.67
2022-09-16T12:31:53.117Z,18
2022-09-16T12:32:53.110Z,18.67
2022-09-16T12:33:53.153Z,18.67
2022-09-16T12:34:53.111Z,18.5
2022-09-16T12:35:53.111Z,18.17
2022-09-16T12:36:53.128Z,18
2022-09-16T12:37:53.254Z,18.33
2022-09-16T12:38:53.182Z,18.67
2022-09-16T12:39:53.158Z,18.17
2022-09-16T12:40:53.115Z,17.67
2022-09-16T12:41:53.114Z,17.83
2022-09-16T12:42:53.119Z,18.33
2022-09-16T12:43:53.111Z,18.33
2022-09-16T12:44:53.118Z,18.33
2022-09-16T12:45:53.123Z,18.17
2022-09-16T12:46:53.181Z,18.33
2022-09-16T12:47:53.129Z,18.5
2022-09-16T12:48:53.111Z,18.33
2022-09-16T12:49:53.123Z,18.67
2022-09-16T12:50:53.129Z,18.94
2022-09-16T12:51:53.124Z,18.67
2022-09-16T12:52:53.122Z,18
2022-09-16T12:53:53.294Z,18.17
2022-09-16T12:55:07.039Z,18.33
2022-09-16T12:55:53.125Z,18.67
2022-09-16T12:56:53.122Z,18.83
2022-09-16T12:57:53.138Z,18.94